Time,TemperatureF,DewpointF,PressureIn,WindDirection,WindDirectionDegrees,WindSpeedMPH,WindSpeedGustMPH,Humidity,HourlyPrecipIn,Conditions,Clouds,dailyrainin,SoftwareType,DateUTC
2013-01-11 00:01:00,34.4,29.7,30.20,NE,45,0.0,0.0,83,0.00,,,0.00,WUHU216HW,2013-01-11 08:01:00,
2013-01-11 00:06:00,34.2,29.8,30.20,NE,45,0.0,0.0,84,0.00,,,0.00,WUHU216HW,2013-01-11 08:06:00,
2013-01-11 00:11:00,34.2,29.8,30.19,NE,45,0.0,0.0,84,0.00,,,0.00,WUHU216HW,2013-01-11 08:11:00,
2013-01-11 00:16:00,34.0,29.6,30.20,NE,45,0.0,0.0,84,0.00,,,0.00,WUHU216HW,2013-01-11 08:16:00,
2013-01-11 00:21:00,34.0,29.6,30.20,NE,45,0.0,0.0,84,0.00,,,0.00,WUHU216HW,2013-01-11 08:21:00,
2013-01-11 00:26:00,34.0,29.6,30.20,NE,45,0.0,0.0,84,0.00,,,0.00,WUHU216HW,2013-01-11 08:26:00,
2013-01-11 00:31:00,33.8,29.2,30.20,NE,45,0.2,0.2,83,0.00,,,0.00,WUHU216HW,2013-01-11 08:31:00,
2013-01-11 00:36:00,33.8,29.2,30.20,NE,45,0.0,0.2,83,0.00,,,0.00,WUHU216HW,2013-01-11 08:36:00,
2013-01-11 00:41:00,33.8,29.2,30.20,NE,45,0.0,0.2,83,0.00,,,0.00,WUHU216HW,2013-01-11 08:41:00,
2013-01-11 00:46:00,33.8,29.2,30.20,NE,45,0.0,0.2,83,0.00,,,0.00,WUHU216HW,2013-01-11 08:46:00,
2013-01-11 00:52:00,33.8,29.2,30.20,NE,45,0.0,0.2,83,0.00,,,0.00,WUHU216HW,2013-01-11 08:52:00,
2013-01-11 00:57:00,33.7,29.3,30.20,NE,45,0.0,0.0,84,0.00,,,0.00,WUHU216HW,2013-01-11 08:57:00,
2013-01-11 01:02:00,33.7,29.0,30.20,NE,45,0.0,0.0,83,0.00,,,0.00,WUHU216HW,2013-01-11 09:02:00,
2013-01-11 01:07:00,33.5,28.8,30.20,NE,45,0.0,0.0,83,0.00,,,0.00,WUHU216HW,2013-01-11 09:07:00,
2013-01-11 01:12:00,33.5,29.1,30.20,NE,45,0.0,0.0,84,0.00,,,0.00,WUHU216HW,2013-01-11 09:12:00,
2013-01-11 01:17:00,33.5,29.1,30.19,NE,45,0.0,0.0,84,0.00,,,0.00,WUHU216HW,2013-01-11 09:17:00,
2013-01-11 01:22:00,33.3,28.9,30.19,NE,45,0.0,0.0,84,0.00,,,0.00,WUHU216HW,2013-01-11 09:22:00,
2013-01-11 01:27:00,33.3,28.9,30.20,NE,45,0.0,0.0,84,0.00,,,0.00,WUHU216HW,2013-01-11 09:27:00,
2013-01-11 01:32:00,33.1,28.8,30.20,NE,45,0.0,0.0,84,0.00,,,0.00,WUHU216HW,2013-01-11 09:32:00,
2013-01-11 01:37:00,33.1,28.8,30.20,NE,45,0.0,0.0,84,0.00,,,0.00,WUHU216HW,2013-01-11 09:37:00,
2013-01-11 01:42:00,33.1,29.1,30.20,NE,45,0.0,0.0,85,0.00,,,0.00,WUHU216HW,2013-01-11 09:42:00,
2013-01-11 01:47:00,33.1,29.1,30.21,NE,45,0.0,0.0,85,0.00,,,0.00,WUHU216HW,2013-01-11 09:47:00,
2013-01-11 01:52:00,33.1,29.1,30.21,NE,45,0.0,0.0,85,0.00,,,0.00,WUHU216HW,2013-01-11 09:52:00,
2013-01-11 01:57:00,32.9,28.9,30.21,NE,45,0.0,0.0,85,0.00,,,0.00,WUHU216HW,2013-01-11 09:57:00,
2013-01-11 02:02:00,32.9,28.9,30.21,NE,45,0.0,0.0,85,0.00,,,0.00,WUHU216HW,2013-01-11 10:02:00,
2013-01-11 02:07:00,32.8,28.7,30.21,NE,45,0.0,0.0,85,0.00,,,0.00,WUHU216HW,2013-01-11 10:07:00,
2013-01-11 02:12:00,32.8,28.7,30.21,NE,45,0.0,0.0,85,0.00,,,0.00,WUHU216HW,2013-01-11 10:12:00,
2013-01-11 02:18:00,32.6,28.5,30.21,NE,45,0.0,0.0,85,0.00,,,0.00,WUHU216HW,2013-01-11 10:18:00,
2013-01-11 02:23:00,32.6,28.5,30.21,NE,45,0.0,0.0,85,0.00,,,0.00,WUHU216HW,2013-01-11 10:23:00,
2013-01-11 02:28:00,32.4,28.5,30.21,NE,45,0.0,0.0,85,0.00,,,0.00,WUHU216HW,2013-01-11 10:28:00,
2013-01-11 02:33:00,32.4,28.5,30.21,NE,45,0.0,0.0,85,0.00,,,0.00,WUHU216HW,2013-01-11 10:33:00,
2013-01-11 02:38:00,32.4,28.5,30.21,NE,45,0.0,0.0,85,0.00,,,0.00,WUHU216HW,2013-01-11 10:38:00,
2013-01-11 02:43:00,32.4,28.5,30.21,NE,45,0.0,0.0,85,0.00,,,0.00,WUHU216HW,2013-01-11 10:43:00,
2013-01-11 02:48:00,32.2,28.3,30.21,NE,45,0.0,0.0,85,0.00,,,0.00,WUHU216HW,2013-01-11 10:48:00,
2013-01-11 02:53:00,32.0,28.1,30.21,NE,45,0.0,0.0,85,0.00,,,0.00,WUHU216HW,2013-01-11 10:53:00,
2013-01-11 02:58:00,32.0,28.1,30.21,NE,45,0.0,0.0,85,0.00,,,0.00,WUHU216HW,2013-01-11 10:58:00,
2013-01-11 03:03:00,32.0,28.1,30.21,NE,45,0.0,0.0,85,0.00,,,0.00,WUHU216HW,2013-01-11 11:03:00,
2013-01-11 03:08:00,31.9,27.9,30.21,NE,45,0.0,0.2,85,0.00,,,0.00,WUHU216HW,2013-01-11 11:08:00,
2013-01-11 03:13:00,31.9,27.9,30.21,NE,45,0.0,0.2,85,0.00,,,0.00,WUHU216HW,2013-01-11 11:13:00,
2013-01-11 03:18:00,31.9,27.9,30.21,NE,45,0.0,0.0,85,0.00,,,0.00,WUHU216HW,2013-01-11 11:18:00,
2013-01-11 03:23:00,31.7,28.0,30.21,NE,45,0.0,0.0,86,0.00,,,0.00,WUHU216HW,2013-01-11 11:23:00,
2013-01-11 03:29:00,31.7,28.0,30.21,NE,45,0.0,0.0,86,0.00,,,0.00,WUHU216HW,2013-01-11 11:29:00,
2013-01-11 03:34:00,31.5,27.8,30.21,NE,45,0.0,0.0,86,0.00,,,0.00,WUHU216HW,2013-01-11 11:34:00,
2013-01-11 03:39:00,31.5,27.8,30.21,NE,45,0.0,0.0,86,0.00,,,0.00,WUHU216HW,2013-01-11 11:39:00,
2013-01-11 03:44:00,31.3,27.6,30.21,NE,45,0.0,0.0,86,0.00,,,0.00,WUHU216HW,2013-01-11 11:44:00,
2013-01-11 03:49:00,31.3,27.6,30.21,NE,45,0.0,0.0,86,0.00,,,0.00,WUHU216HW,2013-01-11 11:49:00,
2013-01-11 03:54:00,31.3,27.6,30.21,NE,45,0.0,0.0,86,0.00,,,0.00,WUHU216HW,2013-01-11 11:54:00,
2013-01-11 03:59:00,31.3,27.6,30.21,NE,45,0.0,0.0,86,0.00,,,0.00,WUHU216HW,2013-01-11 11:59:00,
2013-01-11 04:04:00,31.1,27.5,30.21,NE,45,0.0,0.0,86,0.00,,,0.00,WUHU216HW,2013-01-11 12:04:00,
2013-01-11 04:09:00,31.1,27.5,30.21,NE,45,0.0,0.0,86,0.00,,,0.00,WUHU216HW,2013-01-11 12:09:00,
2013-01-11 04:14:00,31.1,27.5,30.21,NE,45,0.0,0.0,86,0.00,,,0.00,WUHU216HW,2013-01-11 12:14:00,
2013-01-11 04:19:00,31.0,27.3,30.21,NE,45,0.0,0.0,86,0.00,,,0.00,WUHU216HW,2013-01-11 12:19:00,
2013-01-11 04:24:00,31.0,27.3,30.21,NE,45,0.0,0.0,86,0.00,,,0.00,WUHU216HW,2013-01-11 12:24:00,
2013-01-11 04:30:00,31.0,27.3,30.21,NE,45,0.0,0.0,86,0.00,,,0.00,WUHU216HW,2013-01-11 12:30:00,
2013-01-11 04:35:00,30.8,27.1,30.21,NE,45,0.0,0.0,86,0.00,,,0.00,WUHU216HW,2013-01-11 12:35:00,
2013-01-11 04:40:00,30.8,27.1,30.22,NE,45,0.0,0.0,86,0.00,,,0.00,WUHU216HW,2013-01-11 12:40:00,
2013-01-11 04:45:00,30.8,27.1,30.21,NE,45,0.0,0.0,86,0.00,,,0.00,WUHU216HW,2013-01-11 12:45:00,
2013-01-11 04:50:00,30.8,27.1,30.22,NE,45,0.0,0.0,86,0.00,,,0.00,WUHU216HW,2013-01-11 12:50:00,
2013-01-11 04:55:00,30.6,26.9,30.21,NE,45,0.0,0.0,86,0.00,,,0.00,WUHU216HW,2013-01-11 12:55:00,
2013-01-11 05:00:00,30.6,26.9,30.22,NE,45,0.0,0.0,86,0.00,,,0.00,WUHU216HW,2013-01-11 13:00:00,
2013-01-11 05:05:00,30.6,26.9,30.22,NE,45,0.0,0.0,86,0.00,,,0.00,WUHU216HW,2013-01-11 13:05:00,
2013-01-11 05:10:00,30.6,26.9,30.22,NE,45,0.0,0.0,86,0.00,,,0.00,WUHU216HW,2013-01-11 13:10:00,
2013-01-11 05:15:00,30.4,26.7,30.23,NE,45,0.0,0.0,86,0.00,,,0.00,WUHU216HW,2013-01-11 13:15:00,
2013-01-11 05:20:00,30.4,26.7,30.23,NE,45,0.0,0.0,86,0.00,,,0.00,WUHU216HW,2013-01-11 13:20:00,
2013-01-11 05:25:00,30.4,26.7,30.23,NE,45,0.0,0.0,86,0.00,,,0.00,WUHU216HW,2013-01-11 13:25:00,
2013-01-11 05:31:00,30.2,26.6,30.23,NE,45,0.0,0.0,86,0.00,,,0.00,WUHU216HW,2013-01-11 13:31:00,
2013-01-11 05:36:00,30.2,26.6,30.23,NE,45,0.0,0.0,86,0.00,,,0.00,WUHU216HW,2013-01-11 13:36:00,
2013-01-11 05:41:00,30.2,26.8,30.23,NE,45,0.0,0.0,87,0.00,,,0.00,WUHU216HW,2013-01-11 13:41:00,
2013-01-11 05:46:00,30.1,26.6,30.23,NE,45,0.0,0.0,87,0.00,,,0.00,WUHU216HW,2013-01-11 13:46:00,
2013-01-11 05:51:00,30.1,26.6,30.23,NE,45,0.0,0.0,87,0.00,,,0.00,WUHU216HW,2013-01-11 13:51:00,
2013-01-11 05:56:00,30.1,26.4,30.23,NE,45,0.0,0.0,86,0.00,,,0.00,WUHU216HW,2013-01-11 13:56:00,
2013-01-11 06:01:00,29.9,26.2,30.23,NE,45,0.0,0.0,86,0.00,,,0.00,WUHU216HW,2013-01-11 14:01:00,
2013-01-11 06:06:00,29.9,26.2,30.24,NE,45,0.0,0.0,86,0.00,,,0.00,WUHU216HW,2013-01-11 14:06:00,
2013-01-11 06:11:00,30.1,26.4,30.24,NE,45,0.2,0.4,86,0.00,,,0.00,WUHU216HW,2013-01-11 14:11:00,
2013-01-11 06:16:00,30.1,26.4,30.24,NE,45,0.2,0.4,86,0.00,,,0.00,WUHU216HW,2013-01-11 14:16:00,
2013-01-11 06:21:00,30.2,26.6,30.24,NE,45,0.0,0.2,86,0.00,,,0.00,WUHU216HW,2013-01-11 14:21:00,
2013-01-11 06:26:00,30.2,27.2,30.24,NE,45,0.0,0.2,88,0.00,,,0.00,WUHU216HW,2013-01-11 14:26:00,
2013-01-11 06:31:00,30.2,27.2,30.24,NE,45,0.0,0.2,88,0.00,,,0.00,WUHU216HW,2013-01-11 14:31:00,
2013-01-11 06:36:00,30.2,27.2,30.24,NE,45,0.0,0.2,88,0.00,,,0.00,WUHU216HW,2013-01-11 14:36:00,
2013-01-11 06:41:00,30.1,26.6,30.25,NE,45,0.0,0.0,87,0.00,,,0.00,WUHU216HW,2013-01-11 14:41:00,
2013-01-11 06:46:00,30.1,26.6,30.25,West,270,0.0,0.4,87,0.00,,,0.00,WUHU216HW,2013-01-11 14:46:00,
2013-01-11 06:51:00,29.9,26.5,30.25,West,270,0.0,0.4,87,0.00,,,0.00,WUHU216HW,2013-01-11 14:51:00,
2013-01-11 06:57:00,29.9,26.5,30.26,WSW,248,0.0,0.0,87,0.00,,,0.00,WUHU216HW,2013-01-11 14:57:00,
2013-01-11 07:02:00,29.9,26.5,30.26,SSW,203,0.0,0.0,87,0.00,,,0.00,WUHU216HW,2013-01-11 15:02:00,
2013-01-11 07:07:00,30.1,26.6,30.26,South,180,0.0,0.0,87,0.00,,,0.00,WUHU216HW,2013-01-11 15:07:00,
2013-01-11 07:12:00,30.1,26.6,30.26,South,180,0.0,0.0,87,0.00,,,0.00,WUHU216HW,2013-01-11 15:12:00,
2013-01-11 07:17:00,30.1,26.6,30.26,South,180,0.0,0.0,87,0.00,,,0.00,WUHU216HW,2013-01-11 15:17:00,
2013-01-11 07:22:00,30.1,26.6,30.26,South,180,0.0,0.0,87,0.00,,,0.00,WUHU216HW,2013-01-11 15:22:00,
2013-01-11 07:27:00,30.1,26.6,30.26,South,180,0.0,0.0,87,0.00,,,0.00,WUHU216HW,2013-01-11 15:27:00,
2013-01-11 07:32:00,30.1,26.6,30.27,South,180,0.0,0.0,87,0.00,,,0.00,WUHU216HW,2013-01-11 15:32:00,
2013-01-11 07:37:00,30.1,26.6,30.27,South,180,0.0,0.0,87,0.00,,,0.00,WUHU216HW,2013-01-11 15:37:00,
2013-01-11 07:42:00,30.1,26.6,30.27,South,180,0.0,0.0,87,0.00,,,0.00,WUHU216HW,2013-01-11 15:42:00,
2013-01-11 07:47:00,30.1,26.6,30.27,South,180,0.0,0.0,87,0.00,,,0.00,WUHU216HW,2013-01-11 15:47:00,
2013-01-11 07:52:00,30.2,26.8,30.28,South,180,0.0,0.0,87,0.00,,,0.00,WUHU216HW,2013-01-11 15:52:00,
2013-01-11 07:57:00,30.2,27.2,30.28,South,180,0.0,0.0,88,0.00,,,0.00,WUHU216HW,2013-01-11 15:57:00,
2013-01-11 08:02:00,30.4,27.4,30.28,South,180,0.2,0.2,88,0.00,,,0.00,WUHU216HW,2013-01-11 16:02:00,
2013-01-11 08:08:00,30.6,27.6,30.28,South,180,0.0,0.2,88,0.00,,,0.00,WUHU216HW,2013-01-11 16:08:00,
2013-01-11 08:13:00,30.8,27.7,30.28,South,180,0.0,0.0,88,0.00,,,0.00,WUHU216HW,2013-01-11 16:13:00,
2013-01-11 08:18:00,31.0,28.2,30.28,South,180,0.0,0.0,89,0.00,,,0.00,WUHU216HW,2013-01-11 16:18:00,
2013-01-11 08:23:00,31.3,28.5,30.29,South,180,0.0,0.0,89,0.00,,,0.00,WUHU216HW,2013-01-11 16:23:00,
2013-01-11 08:28:00,31.9,29.1,30.29,South,180,0.0,0.0,89,0.00,,,0.00,WUHU216HW,2013-01-11 16:28:00,
2013-01-11 08:33:00,32.4,29.5,30.29,South,180,0.0,0.2,89,0.00,,,0.00,WUHU216HW,2013-01-11 16:33:00,
2013-01-11 08:38:00,33.1,30.3,30.29,WSW,248,0.0,0.4,89,0.00,,,0.00,WUHU216HW,2013-01-11 16:38:00,
2013-01-11 08:43:00,33.5,30.5,30.29,South,180,0.0,0.4,89,0.00,,,0.00,WUHU216HW,2013-01-11 16:43:00,
2013-01-11 08:48:00,33.8,30.9,30.29,SE,135,0.4,0.4,89,0.00,,,0.00,WUHU216HW,2013-01-11 16:48:00,
2013-01-11 08:53:00,34.4,31.4,30.29,SSE,158,0.0,0.4,89,0.00,,,0.00,WUHU216HW,2013-01-11 16:53:00,
2013-01-11 08:58:00,34.9,31.7,30.29,SSE,158,0.0,0.0,88,0.00,,,0.00,WUHU216HW,2013-01-11 16:58:00,
2013-01-11 09:03:00,35.5,32.2,30.29,SSE,158,0.9,0.9,88,0.00,,,0.00,WUHU216HW,2013-01-11 17:03:00,
2013-01-11 09:08:00,35.8,32.2,30.29,SSE,158,0.4,1.6,87,0.00,,,0.00,WUHU216HW,2013-01-11 17:08:00,
2013-01-11 09:13:00,36.2,32.6,30.29,SSW,203,0.7,1.8,87,0.00,,,0.00,WUHU216HW,2013-01-11 17:13:00,
2013-01-11 09:18:00,36.4,32.8,30.29,South,180,0.7,1.8,87,0.00,,,0.00,WUHU216HW,2013-01-11 17:18:00,
2013-01-11 09:24:00,36.7,33.1,30.29,SE,135,0.7,1.6,87,0.00,,,0.00,WUHU216HW,2013-01-11 17:24:00,
2013-01-11 09:29:00,37.1,33.5,30.29,SE,135,0.0,1.1,87,0.00,,,0.00,WUHU216HW,2013-01-11 17:29:00,
2013-01-11 09:34:00,37.3,33.4,30.29,SSE,158,0.0,1.1,86,0.00,,,0.00,WUHU216HW,2013-01-11 17:34:00,
2013-01-11 09:39:00,37.6,33.8,30.29,SE,135,0.0,1.1,86,0.00,,,0.00,WUHU216HW,2013-01-11 17:39:00,
2013-01-11 09:44:00,38.2,34.3,30.29,SSE,158,0.0,1.1,86,0.00,,,0.00,WUHU216HW,2013-01-11 17:44:00,
2013-01-11 09:49:00,38.5,34.4,30.29,SSE,158,0.0,1.1,85,0.00,,,0.00,WUHU216HW,2013-01-11 17:49:00,
2013-01-11 09:54:00,39.1,34.7,30.29,SE,135,0.9,1.1,84,0.00,,,0.00,WUHU216HW,2013-01-11 17:54:00,
2013-01-11 09:59:00,39.2,34.8,30.29,SE,135,0.4,0.9,84,0.00,,,0.00,WUHU216HW,2013-01-11 17:59:00,
2013-01-11 10:04:00,39.6,35.2,30.29,SE,135,0.2,0.9,84,0.00,,,0.00,WUHU216HW,2013-01-11 18:04:00,
2013-01-11 10:09:00,39.6,34.3,30.29,ESE,113,0.4,1.8,81,0.00,,,0.00,WUHU216HW,2013-01-11 18:09:00,
2013-01-11 10:14:00,40.0,34.6,30.28,SW,225,0.4,1.8,81,0.00,,,0.00,WUHU216HW,2013-01-11 18:14:00,
2013-01-11 10:19:00,40.1,35.4,30.28,SSE,158,1.6,1.6,83,0.00,,,0.00,WUHU216HW,2013-01-11 18:19:00,
2013-01-11 10:24:00,40.7,35.6,30.28,SSE,158,0.0,1.6,82,0.00,,,0.00,WUHU216HW,2013-01-11 18:24:00,
2013-01-11 10:29:00,41.0,35.6,30.28,SSW,203,0.0,0.7,81,0.00,,,0.00,WUHU216HW,2013-01-11 18:29:00,
2013-01-11 10:34:00,41.4,35.9,30.29,SSW,203,0.7,0.7,81,0.00,,,0.00,WUHU216HW,2013-01-11 18:34:00,
2013-01-11 10:40:00,41.6,36.1,30.28,SE,135,0.2,0.7,81,0.00,,,0.00,WUHU216HW,2013-01-11 18:40:00,
2013-01-11 10:45:00,41.8,36.3,30.28,SE,135,0.0,1.1,81,0.00,,,0.00,WUHU216HW,2013-01-11 18:45:00,
2013-01-11 10:50:00,41.8,36.3,30.28,SE,135,0.0,1.1,81,0.00,,,0.00,WUHU216HW,2013-01-11 18:50:00,
2013-01-11 10:55:00,41.8,36.0,30.27,SE,135,0.9,1.6,80,0.00,,,0.00,WUHU216HW,2013-01-11 18:55:00,
2013-01-11 11:00:00,41.8,36.0,30.27,NW,315,0.0,1.6,80,0.01,,,0.02,WUHU216HW,2013-01-11 19:00:00,
2013-01-11 11:05:00,41.8,35.6,30.27,SSW,203,0.2,1.1,79,0.01,,,0.02,WUHU216HW,2013-01-11 19:05:00,
2013-01-11 11:10:00,41.9,35.8,30.26,ENE,68,0.2,0.9,79,0.01,,,0.02,WUHU216HW,2013-01-11 19:10:00,
2013-01-11 11:15:00,42.3,35.9,30.26,NNW,338,0.7,1.3,78,0.01,,,0.02,WUHU216HW,2013-01-11 19:15:00,
2013-01-11 11:20:00,42.7,35.9,30.26,SE,135,0.2,1.3,77,0.01,,,0.02,WUHU216HW,2013-01-11 19:20:00,
2013-01-11 11:25:00,42.8,35.8,30.26,South,180,1.6,1.6,76,0.01,,,0.02,WUHU216HW,2013-01-11 19:25:00,
2013-01-11 11:30:00,43.2,36.1,30.25,SSE,158,0.4,1.6,76,0.01,,,0.02,WUHU216HW,2013-01-11 19:30:00,
2013-01-11 11:35:00,43.6,35.8,30.25,SE,135,0.9,1.8,74,0.01,,,0.02,WUHU216HW,2013-01-11 19:35:00,
2013-01-11 11:40:00,44.1,36.4,30.24,ESE,113,0.7,1.8,74,0.01,,,0.02,WUHU216HW,2013-01-11 19:40:00,
2013-01-11 11:45:00,44.3,36.5,30.24,SSW,203,0.4,1.3,74,0.01,,,0.02,WUHU216HW,2013-01-11 19:45:00,
2013-01-11 11:50:00,44.6,36.2,30.24,South,180,0.2,1.1,72,0.01,,,0.02,WUHU216HW,2013-01-11 19:50:00,
2013-01-11 11:56:00,45.0,36.2,30.24,South,180,1.1,1.8,71,0.01,,,0.02,WUHU216HW,2013-01-11 19:56:00,
2013-01-11 12:01:00,45.0,36.6,30.24,SSW,203,0.9,1.8,72,0.00,,,0.02,WUHU216HW,2013-01-11 20:01:00,
2013-01-11 12:06:00,45.2,36.7,30.23,West,270,0.4,1.8,72,0.00,,,0.02,WUHU216HW,2013-01-11 20:06:00,
2013-01-11 12:11:00,45.2,36.4,30.24,SSE,158,2.2,2.2,71,0.00,,,0.02,WUHU216HW,2013-01-11 20:11:00,
2013-01-11 12:16:00,45.7,36.2,30.23,South,180,0.9,2.2,69,0.00,,,0.02,WUHU216HW,2013-01-11 20:16:00,
2013-01-11 12:21:00,45.7,35.7,30.23,SSE,158,0.7,1.8,68,0.00,,,0.02,WUHU216HW,2013-01-11 20:21:00,
2013-01-11 12:26:00,46.1,36.1,30.23,NE,45,0.4,1.8,68,0.00,,,0.02,WUHU216HW,2013-01-11 20:26:00,
2013-01-11 12:31:00,46.3,36.3,30.22,South,180,1.3,1.3,68,0.00,,,0.02,WUHU216HW,2013-01-11 20:31:00,
2013-01-11 12:36:00,46.3,36.3,30.22,South,180,0.9,2.0,68,0.00,,,0.02,WUHU216HW,2013-01-11 20:36:00,
2013-01-11 12:41:00,46.4,36.1,30.21,SSW,203,0.2,2.0,67,0.00,,,0.02,WUHU216HW,2013-01-11 20:41:00,
2013-01-11 12:46:00,46.8,36.0,30.21,East,90,0.4,1.3,66,0.00,,,0.02,WUHU216HW,2013-01-11 20:46:00,
2013-01-11 12:51:00,47.2,36.4,30.21,SW,225,2.2,2.2,66,0.00,,,0.02,WUHU216HW,2013-01-11 20:51:00,
2013-01-11 12:56:00,47.5,36.7,30.21,NE,45,0.0,2.2,66,0.00,,,0.02,WUHU216HW,2013-01-11 20:56:00,
2013-01-11 13:01:00,47.5,36.3,30.21,NNE,23,0.9,1.6,65,0.00,,,0.02,WUHU216HW,2013-01-11 21:01:00,
2013-01-11 13:07:00,47.7,36.1,30.21,West,270,0.2,2.0,64,0.00,,,0.02,WUHU216HW,2013-01-11 21:07:00,
2013-01-11 13:12:00,47.9,36.6,30.21,SSW,203,0.4,2.0,65,0.00,,,0.02,WUHU216HW,2013-01-11 21:12:00,
2013-01-11 13:17:00,47.9,36.6,30.21,SSW,203,1.6,1.8,65,0.00,,,0.02,WUHU216HW,2013-01-11 21:17:00,
2013-01-11 13:22:00,48.2,35.8,30.20,South,180,1.8,2.2,62,0.00,,,0.02,WUHU216HW,2013-01-11 21:22:00,
2013-01-11 13:27:00,48.4,36.4,30.20,NW,315,2.2,2.7,63,0.00,,,0.02,WUHU216HW,2013-01-11 21:27:00,
2013-01-11 13:32:00,48.2,35.5,30.20,WSW,248,1.8,2.7,61,0.00,,,0.02,WUHU216HW,2013-01-11 21:32:00,
2013-01-11 13:37:00,48.6,36.2,30.20,SSW,203,0.9,2.5,62,0.00,,,0.02,WUHU216HW,2013-01-11 21:37:00,
2013-01-11 13:42:00,48.8,36.4,30.20,NNW,338,0.4,2.5,62,0.00,,,0.02,WUHU216HW,2013-01-11 21:42:00,
2013-01-11 13:47:00,48.6,36.2,30.20,West,270,0.4,1.8,62,0.00,,,0.02,WUHU216HW,2013-01-11 21:47:00,
2013-01-11 13:52:00,48.8,36.4,30.20,West,270,1.1,1.3,62,0.00,,,0.02,WUHU216HW,2013-01-11 21:52:00,
2013-01-11 13:57:00,48.8,35.1,30.19,SSW,203,1.1,1.3,59,0.00,,,0.02,WUHU216HW,2013-01-11 21:57:00,
2013-01-11 14:02:00,49.0,33.9,30.20,SSE,158,1.3,4.0,56,0.00,,,0.02,WUHU216HW,2013-01-11 22:02:00,
2013-01-11 14:07:00,49.1,35.9,30.20,North,0,0.4,4.0,60,0.00,,,0.02,WUHU216HW,2013-01-11 22:07:00,
2013-01-11 14:12:00,49.0,35.3,30.19,North,0,2.0,3.4,59,0.00,,,0.02,WUHU216HW,2013-01-11 22:12:00,
2013-01-11 14:17:00,49.1,35.5,30.19,WSW,248,2.5,3.4,59,0.00,,,0.02,WUHU216HW,2013-01-11 22:17:00,
2013-01-11 14:23:00,49.3,34.2,30.19,SSE,158,1.8,3.6,56,0.00,,,0.02,WUHU216HW,2013-01-11 22:23:00,
2013-01-11 14:28:00,49.3,35.2,30.19,SSE,158,0.0,3.6,58,0.00,,,0.02,WUHU216HW,2013-01-11 22:28:00,
2013-01-11 14:33:00,49.5,35.3,30.19,WSW,248,0.4,2.2,58,0.00,,,0.02,WUHU216HW,2013-01-11 22:33:00,
2013-01-11 14:38:00,49.3,35.2,30.19,North,0,0.4,2.2,58,0.00,,,0.02,WUHU216HW,2013-01-11 22:38:00,
2013-01-11 14:43:00,49.3,35.2,30.19,East,90,0.2,1.8,58,0.00,,,0.02,WUHU216HW,2013-01-11 22:43:00,
2013-01-11 14:48:00,49.3,34.8,30.19,South,180,1.1,1.3,57,0.00,,,0.02,WUHU216HW,2013-01-11 22:48:00,
2013-01-11 14:53:00,49.5,34.8,30.19,SE,135,1.8,1.8,57,0.00,,,0.02,WUHU216HW,2013-01-11 22:53:00,
2013-01-11 14:58:00,49.7,35.5,30.19,SSE,158,1.1,1.8,58,0.00,,,0.02,WUHU216HW,2013-01-11 22:58:00,
2013-01-11 15:03:00,49.7,35.0,30.19,SSE,158,1.8,1.8,57,0.00,,,0.02,WUHU216HW,2013-01-11 23:03:00,
2013-01-11 15:08:00,49.5,34.8,30.19,NNW,338,1.6,1.8,57,0.00,,,0.02,WUHU216HW,2013-01-11 23:08:00,
2013-01-11 15:13:00,49.5,34.8,30.19,South,180,0.4,1.6,57,0.00,,,0.02,WUHU216HW,2013-01-11 23:13:00,
2013-01-11 15:18:00,49.5,35.3,30.19,NE,45,0.4,1.3,58,0.00,,,0.02,WUHU216HW,2013-01-11 23:18:00,
2013-01-11 15:23:00,49.3,34.2,30.19,SW,225,1.1,1.3,56,0.00,,,0.02,WUHU216HW,2013-01-11 23:23:00,
2013-01-11 15:28:00,49.3,35.2,30.19,SSE,158,0.4,2.9,58,0.00,,,0.02,WUHU216HW,2013-01-11 23:28:00,
2013-01-11 15:33:00,49.3,35.2,30.18,South,180,0.2,2.9,58,0.00,,,0.02,WUHU216HW,2013-01-11 23:33:00,
2013-01-11 15:39:00,49.3,35.2,30.18,NW,315,0.2,2.5,58,0.00,,,0.02,WUHU216HW,2013-01-11 23:39:00,
2013-01-11 15:44:00,49.1,34.6,30.18,SSE,158,1.6,1.6,57,0.00,,,0.02,WUHU216HW,2013-01-11 23:44:00,
2013-01-11 15:49:00,49.1,35.0,30.18,SSE,158,0.4,1.6,58,0.00,,,0.02,WUHU216HW,2013-01-11 23:49:00,
2013-01-11 15:54:00,49.0,34.4,30.19,SSE,158,0.7,1.8,57,0.00,,,0.02,WUHU216HW,2013-01-11 23:54:00,
2013-01-11 15:59:00,49.0,34.4,30.18,SSE,158,0.9,1.6,57,0.00,,,0.02,WUHU216HW,2013-01-11 23:59:00,
2013-01-11 16:04:00,49.0,35.3,30.18,North,0,0.4,1.1,59,0.00,,,0.02,WUHU216HW,2013-01-12 00:04:00,
2013-01-11 16:09:00,49.0,35.3,30.18,NNW,338,0.2,1.3,59,0.00,,,0.02,WUHU216HW,2013-01-12 00:09:00,
2013-01-11 16:14:00,49.0,35.3,30.18,North,0,0.2,2.0,59,0.00,,,0.02,WUHU216HW,2013-01-12 00:14:00,
2013-01-11 16:19:00,49.1,35.5,30.18,SE,135,1.1,2.0,59,0.00,,,0.02,WUHU216HW,2013-01-12 00:19:00,
2013-01-11 16:24:00,49.0,35.3,30.18,SSW,203,0.0,1.3,59,0.00,,,0.02,WUHU216HW,2013-01-12 00:24:00,
2013-01-11 16:29:00,49.0,35.3,30.18,WSW,248,0.4,0.4,59,0.00,,,0.02,WUHU216HW,2013-01-12 00:29:00,
2013-01-11 16:34:00,48.8,35.1,30.18,SE,135,0.2,0.4,59,0.00,,,0.02,WUHU216HW,2013-01-12 00:34:00,
2013-01-11 16:40:00,48.8,35.1,30.18,SSW,203,0.4,0.9,59,0.00,,,0.02,WUHU216HW,2013-01-12 00:40:00,
2013-01-11 16:45:00,48.6,34.9,30.18,SSW,203,0.4,1.1,59,0.00,,,0.02,WUHU216HW,2013-01-12 00:45:00,
2013-01-11 16:50:00,48.2,34.7,30.18,SW,225,0.0,1.1,59,0.00,,,0.02,WUHU216HW,2013-01-12 00:50:00,
2013-01-11 16:55:00,47.9,34.7,30.18,NNW,338,0.2,0.4,60,0.00,,,0.02,WUHU216HW,2013-01-12 00:55:00,
2013-01-11 17:00:00,47.7,34.6,30.18,NNE,23,0.4,0.4,60,0.00,,,0.02,WUHU216HW,2013-01-12 01:00:00,
2013-01-11 17:05:00,47.3,34.2,30.18,NNE,23,0.0,0.4,60,0.00,,,0.02,WUHU216HW,2013-01-12 01:05:00,
2013-01-11 17:10:00,47.2,34.4,30.18,NNE,23,0.0,0.2,61,0.00,,,0.02,WUHU216HW,2013-01-12 01:10:00,
2013-01-11 17:15:00,46.6,33.8,30.18,NNE,23,0.0,0.0,61,0.00,,,0.02,WUHU216HW,2013-01-12 01:15:00,
2013-01-11 17:20:00,46.3,33.9,30.18,NNE,23,0.0,0.0,62,0.00,,,0.02,WUHU216HW,2013-01-12 01:20:00,
2013-01-11 17:25:00,45.9,33.6,30.18,NNE,23,0.0,0.0,62,0.00,,,0.02,WUHU216HW,2013-01-12 01:25:00,
2013-01-11 17:31:00,45.7,33.9,30.17,NNE,23,0.0,0.0,63,0.00,,,0.02,WUHU216HW,2013-01-12 01:31:00,
2013-01-11 17:36:00,45.4,33.5,30.17,NNE,23,0.0,0.0,63,0.00,,,0.02,WUHU216HW,2013-01-12 01:36:00,
2013-01-11 17:41:00,45.0,33.6,30.18,NNE,23,0.0,0.0,64,0.00,,,0.02,WUHU216HW,2013-01-12 01:41:00,
2013-01-11 17:46:00,44.6,33.2,30.18,NNE,23,0.0,0.0,64,0.00,,,0.02,WUHU216HW,2013-01-12 01:46:00,
2013-01-11 17:51:00,44.3,33.2,30.18,NNE,23,0.0,0.0,65,0.00,,,0.02,WUHU216HW,2013-01-12 01:51:00,
2013-01-11 17:56:00,44.1,33.5,30.18,NNE,23,0.0,0.0,66,0.00,,,0.02,WUHU216HW,2013-01-12 01:56:00,
2013-01-11 18:01:00,43.9,33.3,30.18,NNE,23,0.0,0.0,66,0.00,,,0.02,WUHU216HW,2013-01-12 02:01:00,
2013-01-11 18:06:00,43.6,33.3,30.18,NNE,23,0.0,0.0,67,0.00,,,0.02,WUHU216HW,2013-01-12 02:06:00,
2013-01-11 18:11:00,43.4,33.1,30.18,NNE,23,0.0,0.0,67,0.00,,,0.02,WUHU216HW,2013-01-12 02:11:00,
2013-01-11 18:16:00,43.2,33.4,30.18,NNE,23,0.0,0.0,68,0.00,,,0.02,WUHU216HW,2013-01-12 02:16:00,
2013-01-11 18:21:00,42.8,33.0,30.18,NNE,23,0.0,0.0,68,0.00,,,0.02,WUHU216HW,2013-01-12 02:21:00,
2013-01-11 18:26:00,42.8,33.0,30.18,NNE,23,0.0,0.0,68,0.00,,,0.02,WUHU216HW,2013-01-12 02:26:00,
2013-01-11 18:31:00,42.7,33.3,30.18,NNE,23,0.0,0.0,69,0.00,,,0.02,WUHU216HW,2013-01-12 02:31:00,
2013-01-11 18:36:00,42.5,33.1,30.18,NNE,23,0.0,0.0,69,0.00,,,0.02,WUHU216HW,2013-01-12 02:36:00,
2013-01-11 18:41:00,42.3,33.3,30.18,NNE,23,0.0,0.0,70,0.00,,,0.02,WUHU216HW,2013-01-12 02:41:00,
2013-01-11 18:46:00,42.3,33.3,30.18,NNE,23,0.0,0.0,70,0.00,,,0.02,WUHU216HW,2013-01-12 02:46:00,
2013-01-11 18:51:00,42.1,33.1,30.19,NNE,23,0.0,0.0,70,0.00,,,0.02,WUHU216HW,2013-01-12 02:51:00,
2013-01-11 18:56:00,41.9,32.9,30.19,NNE,23,0.0,0.0,70,0.00,,,0.02,WUHU216HW,2013-01-12 02:56:00,
2013-01-11 19:01:00,41.8,32.8,30.18,NNE,23,0.0,0.0,70,0.00,,,0.02,WUHU216HW,2013-01-12 03:01:00,
2013-01-11 19:06:00,41.6,33.0,30.19,NNE,23,0.0,0.0,71,0.00,,,0.02,WUHU216HW,2013-01-12 03:06:00,
2013-01-11 19:12:00,41.4,32.8,30.18,NNE,23,0.0,0.0,71,0.00,,,0.02,WUHU216HW,2013-01-12 03:12:00,
2013-01-11 19:17:00,41.2,32.6,30.19,NNE,23,0.0,0.0,71,0.00,,,0.02,WUHU216HW,2013-01-12 03:17:00,
2013-01-11 19:22:00,41.0,32.4,30.19,NNE,23,0.0,0.0,71,0.00,,,0.02,WUHU216HW,2013-01-12 03:22:00,
2013-01-11 19:27:00,40.9,32.2,30.19,NNE,23,0.0,0.0,71,0.00,,,0.02,WUHU216HW,2013-01-12 03:27:00,
2013-01-11 19:32:00,41.0,32.4,30.19,NNE,23,0.0,0.0,71,0.00,,,0.02,WUHU216HW,2013-01-12 03:32:00,
2013-01-11 19:37:00,40.9,32.2,30.19,NNE,23,0.0,0.0,71,0.00,,,0.02,WUHU216HW,2013-01-12 03:37:00,
2013-01-11 19:42:00,40.9,32.2,30.19,NNE,23,0.0,0.0,71,0.00,,,0.02,WUHU216HW,2013-01-12 03:42:00,
2013-01-11 19:47:00,40.7,32.1,30.19,NNE,23,0.0,0.0,71,0.00,,,0.02,WUHU216HW,2013-01-12 03:47:00,
2013-01-11 19:52:00,40.5,31.9,30.19,NNE,23,0.0,0.0,71,0.00,,,0.02,WUHU216HW,2013-01-12 03:52:00,
2013-01-11 19:57:00,40.3,31.7,30.19,NNE,23,0.0,0.0,71,0.00,,,0.02,WUHU216HW,2013-01-12 03:57:00,
2013-01-11 20:02:00,40.3,31.7,30.19,NNE,23,0.0,0.0,71,0.00,,,0.02,WUHU216HW,2013-01-12 04:02:00,
2013-01-11 20:07:00,40.0,31.6,30.20,NNE,23,0.0,0.0,72,0.00,,,0.02,WUHU216HW,2013-01-12 04:07:00,
2013-01-11 20:12:00,40.0,31.6,30.20,NNE,23,0.0,0.0,72,0.00,,,0.02,WUHU216HW,2013-01-12 04:12:00,
2013-01-11 20:18:00,39.8,31.4,30.20,NNE,23,0.0,0.0,72,0.00,,,0.02,WUHU216HW,2013-01-12 04:18:00,
2013-01-11 20:23:00,39.6,31.6,30.20,NNE,23,0.0,0.0,73,0.00,,,0.02,WUHU216HW,2013-01-12 04:23:00,
2013-01-11 20:28:00,39.4,31.4,30.20,NNE,23,0.0,0.0,73,0.00,,,0.02,WUHU216HW,2013-01-12 04:28:00,
2013-01-11 20:33:00,39.2,31.2,30.20,NNE,23,0.0,0.0,73,0.00,,,0.02,WUHU216HW,2013-01-12 04:33:00,
2013-01-11 20:38:00,39.2,31.2,30.20,NNE,23,0.0,0.0,73,0.00,,,0.02,WUHU216HW,2013-01-12 04:38:00,
2013-01-11 20:43:00,39.1,31.2,30.20,NNE,23,0.0,0.0,73,0.00,,,0.02,WUHU216HW,2013-01-12 04:43:00,
2013-01-11 20:48:00,38.9,31.2,30.20,NNE,23,0.0,0.0,74,0.00,,,0.02,WUHU216HW,2013-01-12 04:48:00,
2013-01-11 20:53:00,38.7,31.2,30.21,NNE,23,0.0,0.0,74,0.00,,,0.02,WUHU216HW,2013-01-12 04:53:00,
2013-01-11 20:58:00,38.7,31.2,30.21,NNE,23,0.0,0.0,74,0.00,,,0.02,WUHU216HW,2013-01-12 04:58:00,
2013-01-11 21:00:00,38.5,31.0,30.21,NNE,23,0.0,0.0,74,0.00,,,0.02,WUHU216HW,2013-01-12 05:00:00,
2013-01-11 21:01:00,38.5,31.0,30.21,NNE,23,0.0,0.0,74,0.00,,,0.02,WUHU216HW,2013-01-12 05:01:00,
2013-01-11 21:02:00,38.5,31.0,30.21,NNE,23,0.0,0.0,74,0.00,,,0.02,WUHU216HW,2013-01-12 05:02:00,
2013-01-11 21:07:00,38.5,31.0,30.21,NNE,23,0.0,0.0,74,0.00,,,0.02,WUHU216HW,2013-01-12 05:07:00,
2013-01-11 21:13:00,38.3,30.8,30.21,NNE,23,0.2,0.2,74,0.00,,,0.02,WUHU216HW,2013-01-12 05:13:00,
2013-01-11 21:18:00,38.2,31.0,30.21,NNE,23,0.2,0.4,75,0.00,,,0.02,WUHU216HW,2013-01-12 05:18:00,
2013-01-11 21:23:00,38.0,30.8,30.21,NW,315,0.7,0.7,75,0.00,,,0.02,WUHU216HW,2013-01-12 05:23:00,
2013-01-11 21:28:00,37.8,30.6,30.21,NW,315,0.4,0.7,75,0.00,,,0.02,WUHU216HW,2013-01-12 05:28:00,
2013-01-11 21:33:00,37.8,30.9,30.21,NW,315,0.0,0.4,76,0.00,,,0.02,WUHU216HW,2013-01-12 05:33:00,
2013-01-11 21:38:00,37.8,30.9,30.21,NW,315,0.0,0.2,76,0.00,,,0.02,WUHU216HW,2013-01-12 05:38:00,
2013-01-11 21:43:00,37.8,30.9,30.21,North,0,0.0,0.0,76,0.00,,,0.02,WUHU216HW,2013-01-12 05:43:00,
2013-01-11 21:48:00,37.8,30.9,30.21,North,0,0.0,0.0,76,0.00,,,0.02,WUHU216HW,2013-01-12 05:48:00,
2013-01-11 21:53:00,37.8,30.9,30.21,North,0,0.0,0.0,76,0.00,,,0.02,WUHU216HW,2013-01-12 05:53:00,
2013-01-11 21:58:00,37.6,30.8,30.21,North,0,0.0,0.2,76,0.00,,,0.02,WUHU216HW,2013-01-12 05:58:00,
2013-01-11 22:03:00,37.6,30.8,30.21,North,0,0.0,0.2,76,0.00,,,0.02,WUHU216HW,2013-01-12 06:03:00,
2013-01-11 22:08:00,37.4,30.6,30.21,North,0,0.0,0.0,76,0.00,,,0.02,WUHU216HW,2013-01-12 06:08:00,
2013-01-11 22:13:00,37.3,30.7,30.21,North,0,0.0,0.2,77,0.00,,,0.02,WUHU216HW,2013-01-12 06:13:00,
2013-01-11 22:18:00,37.3,30.7,30.21,North,0,0.0,0.2,77,0.00,,,0.02,WUHU216HW,2013-01-12 06:18:00,
2013-01-11 22:23:00,37.1,30.5,30.22,North,0,0.0,0.0,77,0.00,,,0.02,WUHU216HW,2013-01-12 06:23:00,
2013-01-11 22:28:00,37.1,30.3,30.22,North,0,0.0,0.0,76,0.00,,,0.02,WUHU216HW,2013-01-12 06:28:00,
2013-01-11 22:33:00,36.9,30.1,30.22,North,0,0.0,0.0,76,0.00,,,0.02,WUHU216HW,2013-01-12 06:33:00,
2013-01-11 22:39:00,36.7,29.9,30.22,North,0,0.0,0.2,76,0.00,,,0.02,WUHU216HW,2013-01-12 06:39:00,
2013-01-11 22:44:00,36.7,30.2,30.22,NNW,338,0.4,0.4,77,0.00,,,0.02,WUHU216HW,2013-01-12 06:44:00,
2013-01-11 22:49:00,36.7,30.2,30.22,NW,315,0.0,1.1,77,0.00,,,0.02,WUHU216HW,2013-01-12 06:49:00,
2013-01-11 22:54:00,36.7,30.5,30.22,NW,315,0.4,1.1,78,0.00,,,0.02,WUHU216HW,2013-01-12 06:54:00,
2013-01-11 22:59:00,36.9,30.7,30.22,North,0,0.0,0.9,78,0.00,,,0.02,WUHU216HW,2013-01-12 06:59:00,
2013-01-11 23:04:00,36.7,30.5,30.22,NW,315,0.2,0.9,78,0.00,,,0.02,WUHU216HW,2013-01-12 07:04:00,
2013-01-11 23:09:00,36.7,30.5,30.22,NW,315,0.0,0.9,78,0.00,,,0.02,WUHU216HW,2013-01-12 07:09:00,
2013-01-11 23:14:00,36.7,30.5,30.22,NW,315,0.4,0.4,78,0.00,,,0.02,WUHU216HW,2013-01-12 07:14:00,
2013-01-11 23:19:00,36.5,30.6,30.21,WNW,293,1.1,1.1,79,0.00,,,0.02,WUHU216HW,2013-01-12 07:19:00,
2013-01-11 23:24:00,36.7,30.8,30.22,NW,315,1.3,1.3,79,0.00,,,0.02,WUHU216HW,2013-01-12 07:24:00,
2013-01-11 23:29:00,36.9,31.3,30.22,North,0,0.4,1.8,80,0.00,,,0.02,WUHU216HW,2013-01-12 07:29:00,
2013-01-11 23:34:00,36.9,31.3,30.22,NW,315,1.1,1.8,80,0.00,,,0.02,WUHU216HW,2013-01-12 07:34:00,
2013-01-11 23:39:00,36.9,31.3,30.22,NNW,338,1.6,1.8,80,0.00,,,0.02,WUHU216HW,2013-01-12 07:39:00,
2013-01-11 23:44:00,36.9,31.3,30.22,NNE,23,0.0,1.8,80,0.00,,,0.02,WUHU216HW,2013-01-12 07:44:00,
2013-01-11 23:49:00,36.9,31.3,30.22,NNE,23,0.9,0.9,80,0.00,,,0.02,WUHU216HW,2013-01-12 07:49:00,
2013-01-11 23:54:00,36.7,31.1,30.22,NNW,338,0.2,0.9,80,0.00,,,0.02,WUHU216HW,2013-01-12 07:54:00,